Time;durP1;ratioP1;P1;durP2;ratioP2;P2;SDS_P1;SDS_P2;PMS_P1;PMS_P2;Temp;Humidity;BMP_temperature;BMP_pressure;BME280_temperature;BME280_humidity;BME280_pressure;Samples;Min_cycle;Max_cycle;Signal;HPM_P1;HPM_P2
2022/05/08 00:00:55;;;;;;;20.07;13.20;;;;;;;-145.69;100.00;72301.91;5074597;28;20252;-75
2022/05/08 00:03:21;;;;;;;23.03;12.37;;;;;;;-145.69;100.00;72299.91;5074544;28;20203;-75
2022/05/08 00:05:48;;;;;;;20.73;11.67;;;;;;;-145.69;100.00;72319.81;5074200;28;20568;-75
2022/05/08 00:08:14;;;;;;;22.90;10.87;;;;;;;-145.69;100.00;72339.72;5074365;28;20202;-75
2022/05/08 00:10:42;;;;;;;20.93;11.90;;;;;;;-145.69;100.00;72341.72;5073889;28;20628;-75
2022/05/08 00:13:09;;;;;;;19.73;12.40;;;;;;;-145.69;100.00;72343.72;5074627;28;20199;-75
2022/05/08 00:15:36;;;;;;;25.30;13.57;;;;;;;-145.69;100.00;72331.78;5063468;28;20199;-75
2022/05/08 00:18:02;;;;;;;18.27;12.07;;;;;;;-145.69;100.00;72345.69;5071290;28;20248;-75
2022/05/08 00:20:29;;;;;;;21.83;11.87;;;;;;;-145.69;100.00;72355.66;5074109;28;20248;-75
2022/05/08 00:22:55;;;;;;;23.40;12.17;;;;;;;-145.69;100.00;72337.75;5074020;28;20651;-75
2022/05/08 00:25:22;;;;;;;23.13;12.63;;;;;;;-145.69;100.00;72339.72;5074014;28;20229;-75
2022/05/08 00:27:50;;;;;;;21.60;12.93;;;;;;;-145.69;100.00;72339.72;5073678;28;20226;-75
2022/05/08 00:30:16;;;;;;;21.57;12.30;;;;;;;-145.69;100.00;72345.69;5073665;28;20296;-75
2022/05/08 00:32:43;;;;;;;19.10;12.57;;;;;;;-145.69;100.00;72349.69;5073720;28;20194;-75
2022/05/08 00:35:10;;;;;;;19.63;12.30;;;;;;;-145.69;100.00;72367.59;5073593;28;20245;-75
2022/05/08 00:37:37;;;;;;;18.87;11.53;;;;;;;-145.69;100.00;72367.59;5073374;28;20614;-75
2022/05/08 00:40:04;;;;;;;20.48;12.40;;;;;;;-145.69;100.00;72381.53;5073518;28;20460;-75
2022/05/08 00:42:30;;;;;;;17.17;11.47;;;;;;;-145.69;100.00;72379.53;5073857;28;20209;-75
2022/05/08 00:44:58;;;;;;;20.73;12.47;;;;;;;-145.69;100.00;72359.63;5073256;28;20202;-75
2022/05/08 00:47:25;;;;;;;19.83;12.17;;;;;;;-145.69;100.00;72361.63;5073732;28;20203;-75
2022/05/08 00:49:51;;;;;;;17.93;10.93;;;;;;;-145.69;100.00;72389.50;5072285;28;20655;-75
2022/05/08 00:52:18;;;;;;;19.30;10.97;;;;;;;-145.69;100.00;72391.47;5073151;28;20714;-75
2022/05/08 00:54:46;;;;;;;25.60;11.30;;;;;;;-145.69;100.00;72381.53;5072949;28;20207;-76
2022/05/08 00:57:14;;;;;;;19.90;11.50;;;;;;;-145.69;100.00;72391.47;5073248;28;20612;-75
2022/05/08 00:59:40;;;;;;;18.60;11.03;;;;;;;-145.69;100.00;72385.50;5073563;28;20210;-75
2022/05/08 01:02:08;;;;;;;19.33;11.23;;;;;;;-145.69;100.00;72393.47;5073184;28;20206;-75
2022/05/08 01:04:34;;;;;;;19.93;11.50;;;;;;;-145.69;100.00;72403.41;5072509;28;20588;-75
2022/05/08 01:07:01;;;;;;;16.60;10.37;;;;;;;-145.69;100.00;72409.38;5073193;28;20206;-75
2022/05/08 01:09:28;;;;;;;14.07;9.20;;;;;;;-145.69;100.00;72413.38;5073467;28;20203;-75
2022/05/08 01:11:55;;;;;;;16.37;9.43;;;;;;;-145.69;100.00;72427.31;5073125;28;20272;-75
2022/05/08 01:17:45;;;;;;;21.67;9.30;;;;;;;-145.69;100.00;72437.25;5069100;28;20252;-75
2022/05/08 01:20:12;;;;;;;18.43;11.67;;;;;;;-145.69;100.00;72421.34;5072764;28;20868;-75
2022/05/08 01:22:40;;;;;;;16.57;10.13;;;;;;;-145.69;100.00;72421.34;5073157;28;20209;-75
2022/05/08 01:25:07;;;;;;;14.90;9.73;;;;;;;-145.69;100.00;72409.38;5072892;28;20248;-75
2022/05/08 01:27:34;;;;;;;17.13;10.33;;;;;;;-145.69;100.00;72401.44;5073088;28;20290;-74
2022/05/08 01:30:00;;;;;;;19.27;11.63;;;;;;;-145.69;100.00;72401.44;5072952;28;20207;-75
2022/05/08 01:32:27;;;;;;;20.03;11.87;;;;;;;-145.69;100.00;72397.44;5072838;28;20198;-75
2022/05/08 01:34:53;;;;;;;18.67;11.00;;;;;;;-145.69;100.00;72397.44;5073304;28;20591;-75
2022/05/08 01:37:20;;;;;;;20.33;11.00;;;;;;;-145.69;100.00;72401.44;5072931;28;20241;-75
2022/05/08 01:39:47;;;;;;;23.20;11.03;;;;;;;-145.69;100.00;72393.47;5073000;28;20203;-75
2022/05/08 01:42:14;;;;;;;19.90;11.80;;;;;;;-145.69;100.00;72389.50;5072382;28;20194;-75
2022/05/08 01:44:40;;;;;;;21.37;11.40;;;;;;;-145.69;100.00;72389.50;5072833;28;20199;-75
2022/05/08 01:49:50;;;;;;;17.50;10.70;;;;;;;-145.69;100.00;72413.38;5072514;28;20311;-75
2022/05/08 01:52:17;;;;;;;24.73;11.07;;;;;;;-145.69;100.00;72411.38;5072618;28;20750;-75
2022/05/08 01:54:43;;;;;;;20.43;11.60;;;;;;;-145.69;100.00;72405.41;5072711;28;20672;-75
2022/05/08 01:57:11;;;;;;;21.63;11.03;;;;;;;-145.69;100.00;72401.44;5072446;28;20198;-75
2022/05/08 01:59:37;;;;;;;18.97;11.20;;;;;;;-145.69;100.00;72399.44;5056688;28;20190;-75
2022/05/08 02:02:04;;;;;;;23.07;10.37;;;;;;;-145.69;100.00;72421.34;5074407;28;20550;-75
2022/05/08 02:04:31;;;;;;;17.87;10.10;;;;;;;-145.69;100.00;72441.25;5076707;28;20202;-75
2022/05/08 02:06:58;;;;;;;15.73;9.80;;;;;;;-145.69;100.00;72441.25;5076736;28;20294;-75
2022/05/08 02:09:24;;;;;;;18.60;11.30;;;;;;;-145.69;100.00;72439.25;5076601;28;20202;-75
2022/05/08 02:11:50;;;;;;;16.53;10.03;;;;;;;-145.69;100.00;72437.25;5076591;28;20238;-75
2022/05/08 02:14:18;;;;;;;17.97;10.63;;;;;;;-145.69;100.00;72441.25;5076393;28;20203;-74
2022/05/08 02:16:45;;;;;;;19.17;11.10;;;;;;;-145.69;100.00;72443.22;5076516;28;20199;-74
2022/05/08 02:19:12;;;;;;;24.23;12.10;;;;;;;-145.69;100.00;72443.22;5076628;28;20199;-75
2022/05/08 02:21:38;;;;;;;16.87;11.30;;;;;;;-145.69;100.00;72441.25;5064541;28;20195;-75
2022/05/08 02:24:05;;;;;;;20.00;12.67;;;;;;;-145.69;100.00;72435.28;5076224;28;20244;-75
2022/05/08 02:26:31;;;;;;;20.90;12.00;;;;;;;-145.69;100.00;72443.22;5076387;28;20252;-75
2022/05/08 02:28:58;;;;;;;22.43;11.73;;;;;;;-145.69;100.00;72441.25;5076403;28;20202;-75
2022/05/08 02:31:26;;;;;;;17.60;11.80;;;;;;;-145.69;100.00;72445.22;5076361;28;20226;-75
2022/05/08 02:33:52;;;;;;;20.20;10.10;;;;;;;-145.69;100.00;72465.13;5076106;28;20199;-75
2022/05/08 02:36:19;;;;;;;17.27;9.63;;;;;;;-145.69;100.00;72475.06;5075971;28;20603;-74
2022/05/08 02:38:45;;;;;;;19.23;10.90;;;;;;;-145.69;100.00;72473.09;5076047;28;20737;-75
2022/05/08 02:41:12;;;;;;;16.40;10.53;;;;;;;-145.69;100.00;72469.09;5075677;28;20518;-75
2022/05/08 02:43:38;;;;;;;18.37;10.83;;;;;;;-145.69;100.00;72463.13;5075964;28;20202;-75
2022/05/08 02:46:04;;;;;;;15.30;10.57;;;;;;;-145.69;100.00;72473.09;5076300;28;20199;-75
2022/05/08 02:48:32;;;;;;;18.03;10.27;;;;;;;-145.69;100.00;72487.00;5075910;28;20215;-75
2022/05/08 02:50:59;;;;;;;19.73;10.73;;;;;;;-145.69;100.00;72479.06;5075555;28;20226;-75
2022/05/08 02:53:25;;;;;;;18.57;10.57;;;;;;;-145.69;100.00;72489.00;5075845;28;20580;-75
2022/05/08 02:58:36;;;;;;;19.70;11.23;;;;;;;-145.69;100.00;72504.94;5075628;28;20561;-75
2022/05/08 03:01:05;;;;;;;21.00;11.80;;;;;;;-145.69;100.00;72500.94;5075665;28;20225;-75
2022/05/08 03:03:33;;;;;;;19.27;10.73;;;;;;;-145.69;100.00;72506.91;5075394;28;20653;-75
2022/05/08 03:06:00;;;;;;;20.37;10.40;;;;;;;-145.69;100.00;72512.91;5075634;28;20203;-75
2022/05/08 03:08:26;;;;;;;18.27;11.13;;;;;;;-145.69;100.00;72512.91;5075414;28;20205;-75
2022/05/08 03:13:38;;;;;;;16.93;10.43;;;;;;;-145.69;100.00;72522.84;5074677;28;20313;-75
2022/05/08 03:16:06;;;;;;;19.40;10.83;;;;;;;-145.69;100.00;72512.91;5075507;28;20207;-75
2022/05/08 03:18:34;;;;;;;18.77;11.20;;;;;;;-145.69;100.00;72496.97;5074729;28;20214;-75
2022/05/08 03:21:01;;;;;;;32.28;20.00;;;;;;;-145.69;100.00;72473.09;5074158;28;20450;-77
2022/05/08 03:23:28;;;;;;;28.70;16.30;;;;;;;-145.69;100.00;72469.09;5075371;28;20225;-74
2022/05/08 03:25:54;;;;;;;27.90;13.20;;;;;;;-145.69;100.00;72469.09;5074856;28;20194;-76
2022/05/08 03:28:21;;;;;;;23.37;13.33;;;;;;;-145.69;100.00;72453.19;5074810;28;20700;-74
2022/05/08 03:30:48;;;;;;;20.73;12.57;;;;;;;-145.69;100.00;72459.16;5074845;28;20203;-74
2022/05/08 03:33:15;;;;;;;22.77;11.87;;;;;;;-145.69;100.00;72459.16;5074840;28;20198;-74
2022/05/08 03:35:43;;;;;;;18.43;11.03;;;;;;;-145.69;100.00;72453.19;5074590;28;20251;-76
2022/05/08 03:38:09;;;;;;;24.03;12.73;;;;;;;-145.69;100.00;72447.22;5074900;28;20229;-76
2022/05/08 03:40:37;;;;;;;19.23;11.17;;;;;;;-145.69;100.00;72455.16;5075093;28;20209;-74
2022/05/08 03:43:04;;;;;;;19.07;10.80;;;;;;;-145.69;100.00;72459.16;5074546;28;20210;-74
2022/05/08 03:45:31;;;;;;;19.63;11.67;;;;;;;-145.69;100.00;72455.16;5074694;28;20207;-75
2022/05/08 03:47:59;;;;;;;22.67;11.67;;;;;;;-145.69;100.00;72455.16;5074930;28;20592;-74
2022/05/08 03:50:26;;;;;;;20.97;10.93;;;;;;;-145.69;100.00;72443.22;5074707;28;20322;-74
2022/05/08 03:52:54;;;;;;;22.92;15.13;;;;;;;-145.69;100.00;72437.25;5073608;28;20461;-76
2022/05/08 03:55:21;;;;;;;21.03;12.30;;;;;;;-145.69;100.00;72437.25;5074255;28;20198;-75
2022/05/08 03:57:47;;;;;;;18.60;11.97;;;;;;;-145.69;100.00;72443.22;5074516;28;20574;-76
2022/05/08 04:00:15;;;;;;;18.53;10.57;;;;;;;-145.69;100.00;72451.19;5074699;28;20260;-76
2022/05/08 04:02:42;;;;;;;19.80;10.27;;;;;;;-145.69;100.00;72461.13;5074058;28;20214;-76
2022/05/08 04:05:09;;;;;;;19.27;10.40;;;;;;;-145.69;100.00;72453.19;5074356;28;20202;-76
2022/05/08 04:07:37;;;;;;;20.20;11.40;;;;;;;-145.69;100.00;72437.25;5074297;28;20202;-75
2022/05/08 04:10:06;;;;;;;21.87;11.23;;;;;;;-145.69;100.00;72447.22;5074514;28;20198;-76
2022/05/08 04:12:32;;;;;;;21.70;11.50;;;;;;;-145.69;100.00;72425.31;5073801;28;20300;-75
2022/05/08 04:14:59;;;;;;;20.20;12.37;;;;;;;-145.69;100.00;72421.34;5074127;28;20608;-76
2022/05/08 04:17:26;;;;;;;26.57;12.77;;;;;;;-145.69;100.00;72417.34;5074264;28;20206;-75
2022/05/08 04:19:53;;;;;;;21.67;11.27;;;;;;;-145.69;100.00;72413.38;5074139;28;20194;-76
2022/05/08 04:25:07;;;;;;;22.03;12.03;;;;;;;-145.69;100.00;72401.44;5071501;28;20198;-75
2022/05/08 04:27:35;;;;;;;21.93;11.87;;;;;;;-145.69;100.00;72395.47;5074161;28;20203;-76
2022/05/08 04:30:02;;;;;;;17.90;9.43;;;;;;;-145.69;100.00;72409.38;5073494;28;20727;-76
2022/05/08 04:32:28;;;;;;;18.80;11.33;;;;;;;-145.69;100.00;72369.59;5073669;28;20226;-76
2022/05/08 04:34:55;;;;;;;20.37;11.83;;;;;;;-145.69;100.00;72383.53;5074111;28;20203;-75
2022/05/08 04:37:21;;;;;;;15.80;10.03;;;;;;;-145.69;100.00;72385.50;5074041;28;20244;-75
2022/05/08 04:39:47;;;;;;;16.63;9.90;;;;;;;-145.69;100.00;72371.56;5074006;28;20260;-76
2022/05/08 04:42:15;;;;;;;21.03;11.17;;;;;;;-145.69;100.00;72361.63;5073390;28;20653;-76
2022/05/08 04:44:41;;;;;;;16.10;10.07;;;;;;;-145.69;100.00;72361.63;5073505;28;20244;-76
2022/05/08 04:47:08;;;;;;;20.37;9.87;;;;;;;-145.69;100.00;72343.72;5073607;28;20199;-75
2022/05/08 04:49:34;;;;;;;17.10;10.20;;;;;;;-145.69;100.00;72343.72;5073263;28;20287;-76
2022/05/08 04:52:01;;;;;;;15.63;9.13;;;;;;;-145.69;100.00;72347.69;5073640;28;20231;-76
2022/05/08 04:54:27;;;;;;;18.63;10.63;;;;;;;-145.69;100.00;72337.75;5073627;28;20221;-75
2022/05/08 04:56:54;;;;;;;17.67;10.23;;;;;;;-145.69;100.00;72337.75;5072855;28;20199;-76
2022/05/08 04:59:21;;;;;;;14.33;8.67;;;;;;;-145.69;100.00;72341.72;5073703;28;20202;-76
2022/05/08 05:01:49;;;;;;;15.57;9.30;;;;;;;-145.69;100.00;72341.72;5073512;28;20206;-76
2022/05/08 05:04:15;;;;;;;18.33;8.97;;;;;;;-145.69;100.00;72335.75;5073693;28;20240;-76
2022/05/08 05:06:44;;;;;;;15.33;8.43;;;;;;;-145.69;100.00;72335.75;5073483;28;20203;-76
2022/05/08 05:09:10;;;;;;;12.63;8.20;;;;;;;-145.69;100.00;72345.69;5072881;28;20199;-76
2022/05/08 05:11:36;;;;;;;14.97;8.20;;;;;;;-145.69;100.00;72341.72;5073522;28;20231;-76
2022/05/08 05:14:03;;;;;;;14.17;8.87;;;;;;;-145.69;100.00;72337.75;5073036;28;20714;-76
2022/05/08 05:16:31;;;;;;;15.07;8.90;;;;;;;-145.69;100.00;72337.75;5072743;28;20673;-76
2022/05/08 05:18:57;;;;;;;11.73;7.87;;;;;;;-145.69;100.00;72339.72;5073315;28;20604;-76
2022/05/08 05:21:23;;;;;;;13.83;8.73;;;;;;;-145.69;100.00;72337.75;5073000;28;20195;-77
2022/05/08 05:23:50;;;;;;;12.77;9.10;;;;;;;-145.69;100.00;72335.75;5072514;28;20202;-76
2022/05/08 05:26:16;;;;;;;15.77;9.00;;;;;;;-145.69;100.00;72325.81;5073277;28;20203;-76
2022/05/08 05:28:44;;;;;;;14.87;8.90;;;;;;;-145.69;100.00;72321.81;5073228;28;20198;-76
2022/05/08 05:31:11;;;;;;;13.80;9.17;;;;;;;-145.69;100.00;72305.91;5072908;28;20652;-76
2022/05/08 05:33:39;;;;;;;14.13;8.83;;;;;;;-145.69;100.00;72291.97;5051532;28;20640;-76
2022/05/08 05:36:06;;;;;;;13.37;8.47;;;;;;;-145.69;100.00;72293.94;5052828;28;20237;-76
2022/05/08 05:38:32;;;;;;;12.00;8.23;;;;;;;-145.69;100.00;72289.97;5052797;28;20294;-76
2022/05/08 05:40:59;;;;;;;11.30;7.83;;;;;;;-145.69;100.00;72289.97;5053228;28;20203;-76
2022/05/08 05:43:25;;;;;;;12.37;8.40;;;;;;;-145.69;100.00;72282.00;5053653;28;20206;-76
2022/05/08 05:48:32;;;;;;;12.90;8.30;;;;;;;-145.69;100.00;72254.16;5072551;28;20198;-77
2022/05/08 05:51:00;;;;;;;14.17;8.67;;;;;;;-145.69;100.00;72230.25;5072913;28;20460;-76
2022/05/08 05:53:26;;;;;;;15.23;8.43;;;;;;;-145.69;100.00;72214.34;5072712;28;20230;-76
2022/05/08 05:55:54;;;;;;;14.53;8.40;;;;;;;-145.69;100.00;72184.50;5072496;28;20195;-76
2022/05/08 05:58:20;;;;;;;13.43;8.77;;;;;;;-145.69;100.00;72160.59;5072919;28;20202;-76
2022/05/08 06:00:46;;;;;;;13.83;8.73;;;;;;;-145.69;100.00;72136.72;5072230;28;20203;-77
2022/05/08 06:03:13;;;;;;;13.37;8.80;;;;;;;-145.69;100.00;72118.81;5072808;28;20202;-76
2022/05/08 06:05:39;;;;;;;13.87;8.40;;;;;;;-145.69;100.00;72120.81;5072594;28;20635;-76
2022/05/08 06:08:08;;;;;;;15.20;8.00;;;;;;;-145.69;100.00;72096.91;5072143;28;20698;-76
2022/05/08 06:10:35;;;;;;;12.03;8.53;;;;;;;-145.69;100.00;72055.13;5072738;28;20207;-76
2022/05/08 06:13:02;;;;;;;13.27;7.80;;;;;;;-145.69;100.00;72043.19;5072498;28;20325;-77
2022/05/08 06:15:28;;;;;;;10.17;7.47;;;;;;;-145.69;100.00;72001.38;5064135;28;20269;-76
2022/05/08 06:17:55;;;;;;;13.10;7.50;;;;;;;-145.69;100.00;71955.63;5052392;28;20200;-76
2022/05/08 06:20:21;;;;;;;9.20;6.10;;;;;;;-145.69;100.00;71911.84;5056676;28;20260;-76
2022/05/08 06:22:48;;;;;;;7.90;6.03;;;;;;;-145.69;100.00;71885.97;5072669;28;20205;-77
2022/05/08 06:25:16;;;;;;;8.27;6.63;;;;;;;-145.69;100.00;71842.19;5072643;28;20202;-77
2022/05/08 06:27:42;;;;;;;7.97;5.10;;;;;;;-145.69;100.00;71818.31;5071922;28;20203;-77
2022/05/08 06:30:10;;;;;;;7.30;5.50;;;;;;;-145.69;100.00;71772.53;5072498;28;20222;-77
2022/05/08 06:32:36;;;;;;;5.65;4.70;;;;;;;-145.69;100.00;71704.88;5071973;28;20253;-74
2022/05/08 06:35:03;;;;;;;9.27;5.25;;;;;;;-145.69;100.00;71746.66;5072443;28;20199;-74
2022/05/08 06:37:29;;;;;;;15.75;5.65;;;;;;;-145.69;100.00;71716.81;5072180;28;20206;-76
2022/05/08 06:39:56;;;;;;;8.65;4.75;;;;;;;-145.69;100.00;71724.75;5072268;28;20201;-77
2022/05/08 06:42:24;;;;;;;7.40;4.72;;;;;;;-145.69;100.00;71712.81;5072282;28;20203;-77
2022/05/08 06:44:50;;;;;;;7.45;5.10;;;;;;;-145.69;100.00;71750.63;5072035;28;20286;-77
2022/05/08 06:47:17;;;;;;;7.35;5.10;;;;;;;-145.69;100.00;71744.66;5072689;28;20718;-76
2022/05/08 06:49:43;;;;;;;10.35;5.05;;;;;;;-145.69;100.00;71732.72;5075899;28;20234;-76
2022/05/08 06:52:10;;;;;;;11.88;7.10;;;;;;;-145.69;100.00;71679.00;5076208;28;20226;-76
2022/05/08 06:54:36;;;;;;;8.68;5.50;;;;;;;-145.69;100.00;71645.16;5075783;28;20221;-76
2022/05/08 06:57:03;;;;;;;8.95;5.00;;;;;;;-145.69;100.00;71635.22;5075371;28;20190;-75
2022/05/08 07:02:15;;;;;;;9.57;5.55;;;;;;;-145.69;96.63;71605.38;5075855;28;20205;-76
2022/05/08 07:04:42;;;;;;;7.63;4.70;;;;;;;-145.69;95.95;71581.50;5075910;28;20198;-76
2022/05/08 07:07:08;;;;;;;7.00;5.43;;;;;;;-145.69;96.53;71577.50;5075768;28;20572;-75
2022/05/08 07:09:35;;;;;;;10.27;5.18;;;;;;;-145.69;95.38;71569.53;5075408;28;20222;-76
2022/05/08 07:12:02;;;;;;;10.85;5.97;;;;;;;-145.69;92.51;71561.59;5075270;28;20262;-76
2022/05/08 07:14:29;;;;;;;10.45;5.22;;;;;;;-145.69;92.63;71557.59;5075286;28;20653;-76
2022/05/08 07:16:56;;;;;;;11.43;5.53;;;;;;;-145.69;90.21;71557.59;5075271;28;20206;-77
2022/05/08 07:19:23;;;;;;;8.45;5.47;;;;;;;-145.69;91.37;71567.56;5075676;28;20207;-76
2022/05/08 07:21:49;;;;;;;10.40;5.57;;;;;;;-145.69;88.80;71547.66;5074723;28;20607;-76
2022/05/08 07:24:16;;;;;;;8.07;5.90;;;;;;;-145.69;89.87;71561.59;5075317;28;20222;-76
2022/05/08 07:26:45;;;;;;;13.23;5.15;;;;;;;-145.69;88.74;71561.59;5075285;28;20199;-76
2022/05/08 07:29:11;;;;;;;6.75;4.63;;;;;;;-145.69;90.28;71543.69;5075282;28;20202;-77
2022/05/08 07:31:38;;;;;;;9.10;5.32;;;;;;;-145.69;87.51;71491.94;5074762;28;20206;-76
2022/05/08 07:36:50;;;;;;;7.85;4.80;;;;;;;-145.69;84.35;71450.16;5075181;28;20329;-76
2022/05/08 07:39:16;;;;;;;6.80;4.82;;;;;;;-145.69;81.43;71420.31;5074705;28;20198;-77
2022/05/08 07:41:42;;;;;;;8.10;4.68;;;;;;;-145.69;82.33;71420.31;5075066;28;20244;-77
2022/05/08 07:44:09;;;;;;;11.00;4.95;;;;;;;-145.69;82.78;71424.28;5075077;28;20210;-76
2022/05/08 07:46:35;;;;;;;8.75;5.15;;;;;;;-145.69;79.65;71442.19;5074775;28;20191;-77
2022/05/08 07:49:02;;;;;;;8.75;5.10;;;;;;;-145.69;81.69;71450.16;5074535;28;20709;-77
2022/05/08 07:51:30;;;;;;;7.57;5.50;;;;;;;-145.69;83.17;71482.00;5074609;28;20198;-76
2022/05/08 07:53:57;;;;;;;7.03;4.45;;;;;;;-145.69;79.66;71458.09;5074493;28;20231;-76
2022/05/08 07:56:24;;;;;;;7.80;4.85;;;;;;;-145.69;82.50;71466.06;5074923;28;20198;-76
2022/05/08 07:58:50;;;;;;;9.75;5.20;;;;;;;-145.69;80.03;71428.25;5074387;28;20287;-76
2022/05/08 08:01:17;;;;;;;9.27;5.25;;;;;;;-145.69;80.76;71458.09;5074737;28;20202;-77
2022/05/08 08:03:43;;;;;;;10.63;4.40;;;;;;;-145.69;82.18;71416.31;5074715;28;20198;-76
2022/05/08 08:06:09;;;;;;;7.30;4.47;;;;;;;-145.69;80.29;71386.47;5074092;28;20679;-76
2022/05/08 08:08:38;;;;;;;5.38;3.80;;;;;;;-145.69;78.25;71334.75;5074374;28;20650;-78
2022/05/08 08:11:05;;;;;;;7.60;5.03;;;;;;;-145.69;81.85;71330.75;5074355;28;20680;-76
2022/05/08 08:13:33;;;;;;;8.50;5.00;;;;;;;-145.69;81.00;71344.69;5074265;28;20691;-77
2022/05/08 08:16:00;;;;;;;6.68;5.05;;;;;;;-145.69;83.03;71370.56;5074195;28;20198;-77
2022/05/08 08:18:27;;;;;;;5.80;4.50;;;;;;;-145.69;82.08;71364.59;5074327;28;20198;-78
2022/05/08 08:20:54;;;;;;;6.43;4.80;;;;;;;-145.69;82.25;71376.53;5073778;28;20294;-80
2022/05/08 08:23:20;;;;;;;7.50;4.80;;;;;;;-145.69;82.70;71392.44;5064446;28;20204;-78
2022/05/08 08:25:48;;;;;;;8.52;4.85;;;;;;;-145.69;80.98;71390.47;5054143;28;20206;-77
2022/05/08 08:28:18;;;;;;;6.97;4.43;;;;;;;-145.69;81.43;71378.50;5054049;28;20281;-77
2022/05/08 08:30:45;;;;;;;7.40;4.65;;;;;;;-145.69;75.54;71386.47;5054161;28;20249;-77
2022/05/08 08:33:12;;;;;;;9.90;4.80;;;;;;;-145.69;80.44;71380.50;5054819;28;20235;-76
2022/05/08 08:35:39;;;;;;;8.80;5.00;;;;;;;-145.69;80.10;71372.53;5073568;28;20207;-77
2022/05/08 08:38:06;;;;;;;8.77;4.95;;;;;;;-145.69;84.14;71382.50;5073803;28;20199;-77
2022/05/08 08:40:34;;;;;;;6.88;4.47;;;;;;;-145.69;81.99;71386.47;5073741;28;20213;-78
2022/05/08 08:43:03;;;;;;;5.18;4.03;;;;;;;-145.69;83.26;71390.47;5073684;28;20653;-77
2022/05/08 08:48:27;;;;;;;5.90;4.22;;;;;;;-145.69;74.63;71414.34;5073682;28;20205;-77
2022/05/08 08:50:57;;;;;;;8.05;4.10;;;;;;;-145.69;79.20;71370.56;5073371;28;20263;-77
2022/05/08 08:53:25;;;;;;;8.60;4.15;;;;;;;-145.69;72.81;71352.66;5073532;28;20241;-77
2022/05/08 08:55:52;;;;;;;6.10;3.97;;;;;;;-145.69;70.91;71302.91;5073278;28;20195;-78
2022/05/08 08:58:23;;;;;;;6.15;3.45;;;;;;;-145.69;70.06;71281.00;5073121;28;20195;-78
2022/05/08 09:00:50;;;;;;;6.03;3.70;;;;;;;-145.69;63.94;71290.97;5073582;28;20183;-79
2022/05/08 09:03:25;;;;;;;8.55;3.30;;;;;;;-145.69;66.11;71300.91;5073464;28;20538;-78
2022/05/08 09:05:53;;;;;;;9.18;3.50;;;;;;;-145.69;66.50;71304.91;5073238;28;20533;-77
2022/05/08 09:08:32;;;;;;;7.68;3.38;;;;;;;-145.69;69.09;71263.09;5073182;28;20225;-78
2022/05/08 09:11:00;;;;;;;7.53;4.00;;;;;;;-145.69;65.37;71239.22;5072310;28;20309;-79
2022/05/08 09:13:30;;;;;;;6.65;3.80;;;;;;;-145.69;65.23;71261.13;5073223;28;20317;-79
2022/05/08 09:16:02;;;;;;;6.10;3.72;;;;;;;-145.69;69.06;71324.78;5073292;28;20199;-78
2022/05/08 09:18:30;;;;;;;7.22;3.50;;;;;;;-145.69;70.28;71310.84;5073085;28;20688;-79
2022/05/08 09:21:54;;;;;;;4.97;3.70;;;;;;;-145.69;70.80;71342.69;5073148;28;20653;-79
2022/05/08 09:23:44;;;;;;;8.70;4.03;;;;;;;-145.69;72.06;71334.75;5052843;28;20623;-77
2022/05/08 09:26:11;;;;;;;6.07;4.15;;;;;;;-145.69;65.76;71310.84;5052769;28;20204;-77
2022/05/08 09:28:41;;;;;;;5.60;3.60;;;;;;;-145.69;67.21;71314.84;5052690;28;20199;-81
2022/05/08 09:31:09;;;;;;;4.50;3.38;;;;;;;-145.69;67.72;71261.13;5053202;28;20249;-78
2022/05/08 09:33:38;;;;;;;9.30;3.55;;;;;;;-145.69;65.14;71209.38;5059750;28;20309;-77
2022/05/08 09:36:06;;;;;;;6.30;4.30;;;;;;;-145.69;64.83;71285.00;5073027;28;20256;-78
2022/05/08 09:38:50;;;;;;;7.93;3.70;;;;;;;-145.69;65.86;71294.94;5073041;28;20210;-77
2022/05/08 09:41:19;;;;;;;8.20;4.05;;;;;;;-145.69;68.26;71271.06;5072619;28;20214;-77
2022/05/08 09:43:48;;;;;;;6.25;3.88;;;;;;;-145.69;65.09;71231.28;5072774;28;20554;-79
2022/05/08 09:46:15;;;;;;;10.13;4.25;;;;;;;-145.69;61.89;71183.50;5072307;28;20191;-78
2022/05/08 09:48:41;;;;;;;6.65;3.28;;;;;;;-145.69;62.93;71199.44;5072839;28;20209;-77
2022/05/08 09:51:10;;;;;;;9.90;3.60;;;;;;;-145.69;63.57;71199.44;5073049;28;20199;-77
2022/05/08 09:53:38;;;;;;;6.68;3.67;;;;;;;-145.69;60.74;71215.34;5072515;28;20230;-76
2022/05/08 09:56:06;;;;;;;6.45;4.50;;;;;;;-145.69;62.90;71181.53;5069029;28;20255;-76
2022/05/08 09:58:33;;;;;;;6.70;4.88;;;;;;;-145.69;66.82;71211.38;5078753;28;20558;-76
2022/05/08 10:01:01;;;;;;;8.07;5.60;;;;;;;-145.69;72.93;71223.31;5060269;28;20210;-78
2022/05/08 10:03:29;;;;;;;8.50;5.25;;;;;;;-145.69;70.97;71193.47;5067196;28;20206;-76
2022/05/08 10:05:57;;;;;;;8.27;4.80;;;;;;;-145.69;69.91;71219.34;5072893;28;20199;-77
2022/05/08 10:08:25;;;;;;;8.05;4.32;;;;;;;-145.69;68.17;71231.28;5072808;28;20207;-76
2022/05/08 10:13:54;;;;;;;11.52;4.78;;;;;;;-145.69;69.04;71235.25;5071833;28;20233;-77
2022/05/08 10:16:48;;;;;;;9.98;4.40;;;;;;;-145.69;67.29;71237.25;5072661;28;20198;-77
2022/05/08 10:19:46;;;;;;;9.98;5.05;;;;;;;-145.69;65.94;71243.22;5071513;28;20569;-76
2022/05/08 10:22:14;;;;;;;8.60;5.25;;;;;;;-145.69;70.25;71265.09;5055116;28;20222;-80
2022/05/08 10:24:43;;;;;;;9.80;5.80;;;;;;;-145.69;74.26;71265.09;5076253;28;20199;-77
2022/05/08 10:27:11;;;;;;;11.88;5.80;;;;;;;-145.69;76.34;71316.84;5076473;28;20198;-78
2022/05/08 10:29:38;;;;;;;14.73;6.20;;;;;;;-145.69;75.51;71290.97;5076449;28;20198;-77
2022/05/08 10:32:09;;;;;;;8.07;5.65;;;;;;;-145.69;74.66;71281.00;5076391;28;20199;-78
2022/05/08 10:34:39;;;;;;;6.82;5.00;;;;;;;-145.69;75.98;71249.19;5075883;28;20404;-77
2022/05/08 10:37:28;;;;;;;7.72;5.25;;;;;;;-145.69;74.58;71275.03;5076735;28;20203;-79
2022/05/08 10:39:55;;;;;;;10.18;5.80;;;;;;;-145.69;74.68;71312.84;5076240;28;20195;-78
2022/05/08 10:42:43;;;;;;;8.68;5.90;;;;;;;-145.69;74.73;71294.94;5076235;28;20214;-78
2022/05/08 10:45:43;;;;;;;8.50;5.22;;;;;;;-145.69;74.92;71263.09;5075743;28;20286;-77
2022/05/08 10:48:13;;;;;;;10.40;5.50;;;;;;;-145.69;72.91;71207.38;5074966;28;20445;-77
2022/05/08 10:50:42;;;;;;;6.43;4.57;;;;;;;-145.69;68.62;71161.63;5075756;28;20262;-79
2022/05/08 10:53:20;;;;;;;10.35;3.88;;;;;;;-145.69;61.56;71175.56;5075873;28;20222;-80
2022/05/08 10:55:47;;;;;;;12.38;5.07;;;;;;;-145.69;68.17;71171.56;5067357;28;20195;-78
2022/05/08 10:58:13;;;;;;;6.70;3.85;;;;;;;-145.69;57.63;71129.78;5054231;28;20203;-78
2022/05/08 11:00:40;;;;;;;5.60;3.85;;;;;;;-145.69;63.74;71103.94;5061083;28;20326;-79
2022/05/08 11:03:06;;;;;;;10.57;5.85;;;;;;;-145.69;67.64;71135.75;5055299;28;20203;-77
2022/05/08 11:05:36;;;;;;;9.23;5.32;;;;;;;-145.69;69.34;71139.75;5056028;28;20210;-78
2022/05/08 11:08:05;;;;;;;9.13;6.18;;;;;;;-145.69;71.44;71173.56;5064470;28;20660;-78
2022/05/08 11:10:33;;;;;;;9.18;5.82;;;;;;;-145.69;69.59;71173.56;5065585;28;20282;-78
2022/05/08 11:13:01;;;;;;;6.70;4.18;;;;;;;-145.69;62.53;71191.47;5060355;28;20204;-79
2022/05/08 11:15:28;;;;;;;6.50;3.85;;;;;;;-145.69;65.84;71191.47;5067240;28;20313;-76
2022/05/08 11:18:07;;;;;;;7.70;3.88;;;;;;;-145.69;61.34;71221.31;5061031;28;20421;-78
2022/05/08 11:20:39;;;;;;;5.22;3.40;;;;;;;-145.69;62.04;71193.47;5063383;28;20206;-77
2022/05/08 11:23:06;;;;;;;5.68;2.90;;;;;;;-145.69;59.74;71177.53;5058882;28;20199;-77
2022/05/08 11:25:33;;;;;;;10.63;3.70;;;;;;;-145.69;59.70;71215.34;5057938;28;20207;-78
2022/05/08 11:28:00;;;;;;;5.22;3.33;;;;;;;-145.69;61.31;71227.28;5061377;28;20250;-78
2022/05/08 11:30:31;;;;;;;7.22;3.50;;;;;;;-145.69;59.83;71255.16;5066287;28;20199;-77
2022/05/08 11:36:06;;;;;;;8.48;3.53;;;;;;;-145.69;61.49;71229.28;5064955;28;20206;-77
2022/05/08 11:38:40;;;;;;;4.93;3.58;;;;;;;-145.69;61.94;71187.50;5063080;28;20205;-77